CDT,Max TemperatureF,Mean TemperatureF,Min TemperatureF,Max Dew PointF,MeanDew PointF,Min DewpointF,Max Humidity, Mean Humidity, Min Humidity, Max Sea Level PressureIn, Mean Sea Level PressureIn, Min Sea Level PressureIn, Max VisibilityMiles, Mean VisibilityMiles, Min VisibilityMiles, Max Wind SpeedMPH, Mean Wind SpeedMPH, Max Gust SpeedMPH,PrecipitationIn, CloudCover, Events, WindDirDegrees
2013-4-1,75,64,52,57,53,45,100,83,34,30.10,30.02,29.94,10,7,0,8,2,,0.01,3,Fog,348
2013-4-2,78,62,48,58,51,47,93,65,39,30.12,30.05,29.98,10,10,10,10,2,,0.00,0,,131
2013-4-3,63,56,48,55,51,47,100,93,72,30.03,29.97,29.90,10,6,2,15,6,25,1.22,8,Rain-Thunderstorm,46
2013-4-4,54,50,46,50,47,43,100,92,82,30.04,29.99,29.94,10,8,2,13,7,,0.01,8,,321
2013-4-5,66,55,44,48,45,42,93,78,47,30.18,30.11,30.04,10,10,7,14,10,18,0.00,5,,346
2013-4-6,73,56,39,52,46,39,97,70,40,30.15,30.10,30.03,10,10,9,14,4,21,0.00,0,,163
2013-4-7,75,64,53,59,54,52,100,80,46,30.10,30.04,29.98,10,7,2,13,4,20,0.00,4,,163
2013-4-8,80,68,57,66,61,57,100,83,50,30.03,29.97,29.94,10,8,0,18,8,24,0.01,6,Fog,158
2013-4-9,84,76,69,70,68,65,93,83,58,30.01,29.96,29.91,10,10,8,21,12,28,0.00,7,Thunderstorm,158
2013-4-10,82,76,71,70,68,66,90,80,62,29.95,29.88,29.81,10,10,10,20,13,28,0.00,7,,158
2013-4-11,77,62,48,70,57,47,100,90,77,29.86,29.74,29.66,10,8,1,21,13,29,0.15,7,Rain-Thunderstorm,312
2013-4-12,73,57,41,48,43,37,97,64,27,30.01,29.94,29.85,10,10,9,10,4,,0.01,0,,353
2013-4-13,80,62,46,53,43,37,93,54,23,30.05,29.97,29.87,10,10,10,8,3,16,0.00,0,,97
2013-4-14,75,65,57,61,57,54,100,87,62,29.93,29.84,29.74,10,7,2,10,6,17,1.47,6,Rain-Thunderstorm,101
2013-4-15,81,68,57,72,64,55,100,91,71,29.99,29.90,29.81,10,5,0,13,3,,0.02,7,Fog-Rain,153
2013-4-16,84,76,71,72,70,67,100,85,62,30.09,30.04,29.97,10,9,5,16,9,22,0.01,6,Rain,159
2013-4-17,84,76,69,70,69,67,100,83,58,30.09,30.01,29.94,10,9,5,17,7,23,0.00,6,,150
2013-4-18,82,69,57,72,67,55,94,85,67,29.95,29.85,29.76,10,9,2,23,13,40,0.35,8,Rain,165
2013-4-19,60,52,44,55,44,35,100,79,42,30.19,30.02,29.88,10,9,4,20,13,30,0.18,5,Rain-Thunderstorm,325
2013-4-20,70,54,37,44,37,31,93,56,27,30.27,30.20,30.13,10,10,10,9,3,16,0.00,0,,33
2013-4-21,73,60,46,47,40,35,83,52,28,30.24,30.17,30.11,10,10,10,9,4,,0.00,0,,57
2013-4-22,78,62,48,61,51,43,94,66,39,30.15,30.08,30.01,10,10,10,12,4,18,0.00,1,,115
2013-4-23,81,72,64,65,63,61,93,80,54,30.08,30.03,29.96,10,10,7,14,10,22,0.00,6,,160
2013-4-24,68,61,53,67,60,48,100,92,81,30.22,30.10,30.00,10,6,1,20,7,25,0.81,8,Rain-Thunderstorm,4
2013-4-25,70,60,50,49,46,38,92,71,31,30.32,30.27,30.21,10,10,10,10,7,18,0.00,5,,25
2013-4-26,78,64,50,61,53,43,93,69,44,30.28,30.23,30.19,10,10,10,10,3,18,0.00,3,,155
2013-4-27,80,70,62,69,65,61,100,85,62,30.18,30.12,30.02,10,8,2,16,6,21,0.01,6,,176
2013-4-28,75,69,61,70,66,59,100,90,64,30.07,30.01,29.94,10,7,2,13,5,21,0.34,6,Rain-Thunderstorm,208
2013-4-29,84,68,53,62,56,52,100,84,35,29.99,29.94,29.88,10,6,0,7,0,,0.00,2,Fog,144
2013-4-30,75,68,60,66,64,59,100,92,71,29.94,29.90,29.88,10,5,0,10,2,25,1.00,7,Fog-Rain-Thunderstorm,108